Island Venture — WDG3765 — position and weather

sailwx.info

Track history (hours):
 
Tides and Currents Weather Stations Pressure Air Temp Water Temp Dewpoint Dewpoint Depression Visibility Wind Speed Wind Dir Waves Ship Positions

Island Venture

Owner: Island Tug and Barge, Seattle, WA. More information available from US FCC via Universal Licensing System and Coast Guard Vessel Documentation Center.

Last reported at 2017-Dec-16 05:28 UTC. Time now 2017-Dec-16 05:35 UTC.
Position N 47°34' W 122°21'.

Length 32 m.

MMSI: 367529420.

Date/timePositionNaut miles runAvg speedWind from/ knotsBaromVisibWave heightAir tempDewpointWater temp
2017-Dec-16 05:28N 47°34' W 122°21'2 4.2
2017-Dec-16 05:00N 47°36' W 122°22'3 5.6
2017-Dec-16 04:30N 47°35' W 122°26'3 6.7
2017-Dec-16 04:01N 47°32' W 122°28'4 7.9
2017-Dec-16 03:30N 47°28' W 122°31'4 7.8
2017-Dec-16 03:00N 47°24' W 122°32'4 7.8
2017-Dec-16 02:30N 47°20' W 122°33'5 9.4
2017-Dec-16 02:00N 47°16' W 122°33'4 8.4
2017-Dec-16 01:28N 47°12' W 122°36'13 6.0
2017-Dec-15 23:17N 47°11' W 122°55'1 4.6
2017-Dec-15 23:00N 47°12' W 122°56'2 3.1
2017-Dec-15 22:30N 47°12' W 122°58'1 2.8
2017-Dec-15 22:00N 47°12' W 123°00'2 3.7
2017-Dec-15 21:30N 47°12' W 123°03'1 3.0
2017-Dec-15 21:00N 47°13' W 123°05'0 0.4
2017-Dec-15 20:30N 47°13' W 123°04'0 0.0
2017-Dec-15 20:00N 47°13' W 123°04'0 0.0
2017-Dec-15 19:30N 47°13' W 123°04'0 0.0
2017-Dec-15 19:00N 47°13' W 123°04'0 0.0
2017-Dec-15 18:30N 47°13' W 123°04'0 0.0
2017-Dec-15 18:00N 47°13' W 123°04'0 0.0
2017-Dec-15 17:30N 47°13' W 123°04'0 0.0
2017-Dec-15 17:00N 47°13' W 123°04'0 0.0
2017-Dec-15 16:30N 47°13' W 123°04'0 0.0
2017-Dec-15 16:00N 47°13' W 123°04'0 0.0
2017-Dec-15 15:30N 47°13' W 123°04'0 0.0
2017-Dec-15 15:00N 47°13' W 123°04'0 0.2
2017-Dec-15 14:30N 47°13' W 123°05'3 5.1
2017-Dec-15 14:00N 47°12' W 123°01'3 6.0
2017-Dec-15 13:30N 47°12' W 122°57'0 0.2
2017-Dec-15 13:00N 47°12' W 122°57'2 4.0
2017-Dec-15 12:30N 47°12' W 122°60'2 3.7
2017-Dec-15 12:00N 47°12' W 123°02'2 3.3
2017-Dec-15 11:30N 47°13' W 123°05'0 0.2
2017-Dec-15 10:32N 47°13' W 123°05'0 0.0
2017-Dec-15 09:14N 47°13' W 123°05'0 0.0
2017-Dec-15 08:56N 47°13' W 123°05'0 0.0
2017-Dec-15 08:28N 47°13' W 123°05'0 0.0
2017-Dec-15 07:58N 47°13' W 123°05'0 0.0
2017-Dec-15 07:25N 47°13' W 123°05'0 0.0
2017-Dec-15 07:00N 47°13' W 123°05'0 0.0
2017-Dec-15 06:30N 47°13' W 123°05'0 0.0
2017-Dec-15 06:00N 47°13' W 123°05'0 0.0
2017-Dec-15 05:30N 47°13' W 123°05'0 0.0
2017-Dec-15 05:00N 47°13' W 123°05'0 0.0
2017-Dec-15 04:30N 47°13' W 123°05'0 0.0
2017-Dec-15 04:00N 47°13' W 123°05'0 0.1
2017-Dec-15 02:30N 47°13' W 123°04'0 0.0
2017-Dec-15 00:59N 47°13' W 123°04'0 0.0
2017-Dec-15 00:30N 47°13' W 123°04'10 1.7
2017-Dec-14 18:16N 47°13' W 122°49'1 0.1
2017-Dec-14 12:51N 47°12' W 122°50'0 0.1
2017-Dec-14 12:30N 47°12' W 122°50'0 0.1
2017-Dec-14 12:00N 47°12' W 122°50'0 0.2
2017-Dec-14 09:54N 47°12' W 122°49'0 0.3
2017-Dec-14 09:30N 47°12' W 122°50'0 0.2
2017-Dec-14 08:57N 47°12' W 122°50'4 3.7
2017-Dec-14 07:55N 47°09' W 122°54'4 2.0
2017-Dec-14 05:59N 47°12' W 122°50'12 3.6
2017-Dec-14 02:45N 47°16' W 122°33'1 3.3
2017-Dec-14 02:29N 47°16' W 122°33'2 3.1
2017-Dec-14 01:55N 47°18' W 122°33'1 3.3
2017-Dec-14 01:30N 47°19' W 122°33'3 5.2
2017-Dec-14 01:01N 47°22' W 122°32'3 6.6
2017-Dec-14 00:31N 47°25' W 122°32'3 6.7
2017-Dec-14 00:01N 47°28' W 122°31'3 6.7
2017-Dec-13 23:31N 47°31' W 122°28'4 7.4
2017-Dec-13 23:01N 47°35' W 122°26'3 5.4
2017-Dec-13 22:30N 47°35' W 122°22'2 3.0
2017-Dec-13 22:00N 47°34' W 122°21'1 1.1
2017-Dec-13 21:30N 47°33' W 122°21'1 1.0
2017-Dec-13 20:59N 47°34' W 122°21'1 1.1
2017-Dec-13 20:30N 47°34' W 122°21'0 0.3
2017-Dec-13 19:59N 47°34' W 122°21'0 0.0
2017-Dec-13 19:30N 47°34' W 122°21'2 3.1
2017-Dec-13 19:00N 47°33' W 122°20'0 0.2
2017-Dec-13 18:30N 47°33' W 122°20'2 4.2
2017-Dec-13 18:00N 47°35' W 122°22'2 4.1
2017-Dec-13 17:30N 47°35' W 122°25'3 5.6
2017-Dec-13 17:01N 47°33' W 122°27'3 6.0
2017-Dec-13 16:30N 47°30' W 122°29'3 6.4
2017-Dec-13 16:00N 47°28' W 122°31'3 6.5
2017-Dec-13 15:30N 47°24' W 122°32'3 6.5
2017-Dec-13 15:00N 47°21' W 122°32'4 6.7
2017-Dec-13 14:23N 47°17' W 122°32'4 7.7
2017-Dec-13 13:52N 47°13' W 122°35'2 6.5
2017-Dec-13 13:30N 47°11' W 122°37'12 5.6
2017-Dec-13 11:20N 47°10' W 122°55'2 4.9
2017-Dec-13 10:59N 47°12' W 122°56'2 3.5
2017-Dec-13 10:30N 47°12' W 122°58'1 2.7
2017-Dec-13 10:00N 47°12' W 123°00'2 3.6
2017-Dec-13 09:30N 47°12' W 123°03'1 2.8
2017-Dec-13 09:00N 47°13' W 123°05'1 2.3
2017-Dec-13 08:30N 47°12' W 123°04'4 8.1
2017-Dec-13 08:00N 47°12' W 122°58'1 2.6
2017-Dec-13 07:29N 47°12' W 122°56'0 1.0
2017-Dec-13 07:00N 47°12' W 122°56'11 1.5
2017-Dec-12 23:46N 47°11' W 122°40'1 2.2
2017-Dec-12 23:29N 47°11' W 122°40'3 6.3
2017-Dec-12 23:00N 47°10' W 122°45'6 5.5
2017-Dec-12 21:57N 47°10' W 122°53'3 5.8
2017-Dec-12 21:29N 47°11' W 122°56'1 2.9
2017-Dec-12 21:00N 47°12' W 122°58'2 3.2
2017-Dec-12 20:30N 47°12' W 123°00'2 3.7
2017-Dec-12 20:00N 47°12' W 123°03'1 2.9
2017-Dec-12 19:30N 47°13' W 123°05'0 0.5
2017-Dec-12 19:00N 47°13' W 123°05'3 5.7
2017-Dec-12 18:30N 47°12' W 123°01'3 6.5
2017-Dec-12 18:00N 47°12' W 122°56'0 0.8
2017-Dec-12 17:30N 47°12' W 122°56'2 3.1
2017-Dec-12 17:00N 47°10' W 122°55'1 1.0
2017-Dec-12 16:03N 47°09' W 122°55'0 0.4
2017-Dec-12 16:00N 47°09' W 122°55'0 0.3
2017-Dec-12 15:29N 47°09' W 122°55'1 3.0
2017-Dec-12 15:00N 47°10' W 122°53'12 4.0
2017-Dec-12 11:57N 47°13' W 122°35'4 5.2
2017-Dec-12 11:14N 47°16' W 122°33'1 4.4
2017-Dec-12 10:57N 47°17' W 122°32'3 5.9
2017-Dec-12 10:30N 47°20' W 122°33'3 6.2
2017-Dec-12 10:00N 47°23' W 122°32'3 6.3
2017-Dec-12 09:30N 47°26' W 122°31'3 6.6
2017-Dec-12 09:00N 47°29' W 122°30'3 6.7
2017-Dec-12 08:30N 47°32' W 122°28'3 6.3
2017-Dec-12 08:00N 47°35' W 122°25'2 4.8
2017-Dec-12 07:31N 47°35' W 122°22'1 1.8
2017-Dec-12 07:00N 47°34' W 122°21'0 0.1
2017-Dec-12 06:30N 47°34' W 122°21'2 3.6
2017-Dec-12 06:00N 47°33' W 122°20'0 0.0
2017-Dec-12 05:29N 47°33' W 122°20'0 0.0
2017-Dec-12 04:59N 47°33' W 122°20'0 0.3
2017-Dec-12 04:26N 47°33' W 122°20'1 2.7
2017-Dec-12 03:58N 47°34' W 122°21'2 3.8
2017-Dec-12 03:31N 47°36' W 122°22'2 4.7
2017-Dec-12 03:01N 47°35' W 122°25'3 5.8
2017-Dec-12 02:30N 47°33' W 122°28'3 6.9
2017-Dec-12 02:01N 47°29' W 122°30'3 7.0
2017-Dec-12 01:30N 47°26' W 122°31'3 6.8
2017-Dec-12 01:00N 47°23' W 122°32'4 7.9
2017-Dec-12 00:31N 47°19' W 122°33'5 8.3
2017-Dec-11 23:56N 47°14' W 122°34'3 6.9
2017-Dec-11 23:31N 47°12' W 122°37'12 5.6
2017-Dec-11 21:27N 47°10' W 122°53'3 5.6
2017-Dec-11 20:59N 47°11' W 122°56'1 2.8
2017-Dec-11 20:31N 47°12' W 122°58'2 3.3
2017-Dec-11 20:00N 47°12' W 123°00'2 3.7
2017-Dec-11 19:30N 47°12' W 123°03'1 2.8
2017-Dec-11 19:00N 47°13' W 123°05'2 3.5
2017-Dec-11 18:31N 47°12' W 123°02'4 7.7
2017-Dec-11 18:00N 47°12' W 122°57'1 1.7
2017-Dec-11 17:30N 47°12' W 122°56'2 3.9
2017-Dec-11 17:00N 47°10' W 122°55'1 1.3
2017-Dec-11 16:29N 47°09' W 122°54'5 2.8
2017-Dec-11 14:53N 47°12' W 122°50'0 0.3
2017-Dec-11 14:12N 47°12' W 122°50'0 0.2
2017-Dec-11 13:56N 47°12' W 122°50'0 0.1
2017-Dec-11 13:25N 47°12' W 122°50'0 0.4
2017-Dec-11 13:00N 47°12' W 122°50'0 0.4
2017-Dec-11 12:22N 47°12' W 122°50'0 0.3
2017-Dec-11 11:57N 47°12' W 122°50'0 0.1
2017-Dec-11 11:20N 47°12' W 122°50'0 0.1
2017-Dec-11 10:59N 47°12' W 122°50'0 0.2
2017-Dec-11 10:30N 47°12' W 122°50'0 0.3
2017-Dec-11 09:13N 47°12' W 122°49'0 0.4
2017-Dec-11 09:00N 47°12' W 122°49'0 0.5
2017-Dec-11 08:31N 47°12' W 122°49'0 0.4
2017-Dec-11 07:58N 47°12' W 122°50'0 0.2
2017-Dec-11 07:29N 47°12' W 122°50'0 0.3
2017-Dec-11 06:58N 47°12' W 122°50'0 0.4
2017-Dec-11 06:24N 47°12' W 122°50'4 3.4
2017-Dec-11 05:16N 47°09' W 122°54'0 0.6
2017-Dec-11 05:00N 47°09' W 122°54'16 6.4
2017-Dec-11 02:31N 47°16' W 122°33'0 8.1
2017-Dec-11 02:30N 47°16' W 122°33'4 7.2
2017-Dec-11 02:01N 47°20' W 122°33'4 7.0
2017-Dec-11 01:30N 47°23' W 122°32'4 7.0
2017-Dec-11 01:00N 47°27' W 122°31'3 7.0
2017-Dec-11 00:31N 47°30' W 122°30'4 7.0
2017-Dec-11 00:00N 47°33' W 122°27'4 7.9
2017-Dec-10 23:30N 47°36' W 122°24'2 4.5
2017-Dec-10 23:01N 47°34' W 122°21'1 1.4
2017-Dec-10 22:30N 47°34' W 122°21'0 0.1
2017-Dec-10 22:00N 47°34' W 122°21'0 0.0
2017-Dec-10 21:31N 47°34' W 122°21'1 2.8
2017-Dec-10 21:00N 47°32' W 122°20'2 3.7
2017-Dec-10 20:28N 47°31' W 122°18'3 5.6
2017-Dec-10 19:58N 47°33' W 122°21'3 6.0
2017-Dec-10 19:30N 47°36' W 122°21'2 3.1
2017-Dec-10 19:00N 47°34' W 122°21'2 4.8
2017-Dec-10 18:30N 47°32' W 122°20'2 3.6
2017-Dec-10 18:00N 47°31' W 122°18'1 2.6
2017-Dec-10 17:30N 47°32' W 122°19'3 5.3
2017-Dec-10 16:58N 47°34' W 122°21'0 0.0
2017-Dec-10 16:30N 47°34' W 122°21'0 0.0
2017-Dec-10 16:00N 47°34' W 122°21'0 0.0
2017-Dec-10 15:31N 47°34' W 122°21'0 0.0
2017-Dec-10 14:59N 47°34' W 122°21'0 0.0
2017-Dec-10 14:30N 47°34' W 122°21'0 0.0
2017-Dec-10 14:00N 47°34' W 122°21'0 0.0
2017-Dec-10 13:30N 47°34' W 122°21'0 0.0
2017-Dec-09 18:55N 47°34' W 122°21'0 0.0
2017-Dec-09 18:30N 47°34' W 122°21'1 2.4
2017-Dec-09 18:00N 47°35' W 122°22'1 1.6
2017-Dec-09 17:30N 47°36' W 122°23'1 2.4
2017-Dec-09 17:00N 47°36' W 122°24'3 5.4
2017-Dec-09 16:30N 47°33' W 122°27'3 5.0
2017-Dec-09 16:00N 47°31' W 122°29'3 5.2
2017-Dec-09 15:30N 47°29' W 122°30'3 6.9
2017-Dec-09 15:00N 47°26' W 122°32'3 6.8
2017-Dec-09 14:30N 47°22' W 122°32'3 6.4
2017-Dec-09 14:00N 47°19' W 122°33'2 3.3
2017-Dec-09 13:29N 47°18' W 122°33'1 2.8
2017-Dec-09 13:00N 47°16' W 122°33'2 4.5
2017-Dec-09 12:29N 47°14' W 122°35'3 6.8
2017-Dec-09 12:00N 47°11' W 122°37'3 4.8
2017-Dec-09 11:17N 47°08' W 122°39'0 0.0
2017-Dec-09 10:56N 47°08' W 122°39'0 0.0
2017-Dec-09 08:26N 47°08' W 122°39'0 0.0
2017-Dec-09 07:52N 47°08' W 122°39'0 0.0
2017-Dec-09 07:29N 47°08' W 122°39'0 0.8
2017-Dec-09 07:00N 47°08' W 122°39'2 4.9
2017-Dec-09 06:30N 47°07' W 122°42'8 7.4
2017-Dec-09 05:21N 47°10' W 122°54'3 6.3
2017-Dec-09 04:57N 47°12' W 122°56'2 4.4
2017-Dec-09 04:30N 47°12' W 122°59'3 5.1
2017-Dec-09 04:00N 47°12' W 123°02'2 3.5
2017-Dec-09 03:30N 47°13' W 123°05'0 0.0
2017-Dec-09 03:00N 47°13' W 123°05'0 0.0
2017-Dec-09 02:30N 47°13' W 123°05'0 0.0
2017-Dec-09 02:00N 47°13' W 123°05'0 0.0
2017-Dec-09 01:30N 47°13' W 123°05'0 0.0
2017-Dec-09 01:00N 47°13' W 123°05'0 0.0
2017-Dec-09 00:30N 47°13' W 123°05'0 0.0
2017-Dec-09 00:00N 47°13' W 123°05'0 0.0
2017-Dec-08 23:30N 47°13' W 123°05'0 0.0
2017-Dec-08 23:00N 47°13' W 123°05'0 0.0
2017-Dec-08 22:30N 47°13' W 123°05'0 0.0
2017-Dec-08 22:00N 47°13' W 123°05'0 0.0
2017-Dec-08 21:30N 47°13' W 123°05'0 0.0
2017-Dec-08 21:00N 47°13' W 123°05'0 0.0
2017-Dec-08 20:30N 47°13' W 123°05'0 0.0
2017-Dec-08 20:00N 47°13' W 123°05'0 0.0
2017-Dec-08 19:30N 47°13' W 123°05'0 0.0
2017-Dec-08 19:00N 47°13' W 123°05'0 0.0
2017-Dec-08 18:30N 47°13' W 123°05'0 0.0
2017-Dec-08 18:00N 47°13' W 123°05'0 0.0
2017-Dec-08 17:29N 47°13' W 123°05'0 0.0
2017-Dec-08 17:00N 47°13' W 123°05'0 0.0
2017-Dec-08 16:30N 47°13' W 123°05'0 0.0
2017-Dec-08 16:00N 47°13' W 123°05'0 0.0
2017-Dec-08 14:58N 47°13' W 123°05'0 0.0
2017-Dec-08 14:28N 47°13' W 123°05'0 0.0
2017-Dec-08 14:00N 47°13' W 123°05'0 0.0
2017-Dec-08 13:30N 47°13' W 123°05'0 0.0
2017-Dec-08 13:00N 47°13' W 123°05'0 0.0
2017-Dec-08 12:30N 47°13' W 123°05'0 0.0
2017-Dec-08 12:00N 47°13' W 123°05'0 0.0
2017-Dec-08 11:30N 47°13' W 123°05'0 0.0
2017-Dec-08 11:00N 47°13' W 123°05'0 0.0
2017-Dec-08 10:30N 47°13' W 123°05'0 0.0
2017-Dec-08 10:00N 47°13' W 123°05'0 0.0
2017-Dec-08 09:30N 47°13' W 123°05'0 0.0
2017-Dec-08 09:00N 47°13' W 123°05'0 0.0
2017-Dec-08 08:30N 47°13' W 123°05'0 0.0
2017-Dec-08 08:00N 47°13' W 123°05'0 0.0
2017-Dec-08 07:30N 47°13' W 123°05'0 0.0
2017-Dec-08 07:00N 47°13' W 123°05'0 0.0
2017-Dec-08 06:30N 47°13' W 123°05'0 0.0
2017-Dec-08 05:59N 47°13' W 123°05'0 0.0
2017-Dec-08 05:30N 47°13' W 123°05'0 0.0
2017-Dec-08 05:00N 47°13' W 123°05'0 0.0
2017-Dec-08 04:30N 47°13' W 123°05'0 0.0
2017-Dec-08 04:00N 47°13' W 123°05'0 0.0
2017-Dec-08 03:30N 47°13' W 123°05'0 0.0
2017-Dec-08 03:00N 47°13' W 123°05'0 0.0
2017-Dec-08 02:30N 47°13' W 123°05'0 0.0
2017-Dec-08 01:59N 47°13' W 123°05'0 0.0
2017-Dec-08 01:30N 47°13' W 123°05'0 0.0
2017-Dec-08 01:00N 47°13' W 123°05'0 0.0
2017-Dec-08 00:30N 47°13' W 123°05'0 0.0
2017-Dec-07 23:58N 47°13' W 123°05'0 0.1
2017-Dec-07 23:30N 47°13' W 123°05'0 0.0
2017-Dec-07 23:00N 47°13' W 123°05'0 0.0
2017-Dec-07 22:30N 47°13' W 123°05'0 0.0
2017-Dec-07 22:00N 47°13' W 123°05'0 0.0
2017-Dec-07 21:30N 47°13' W 123°05'0 0.0
2017-Dec-07 20:59N 47°13' W 123°05'0 0.1
2017-Dec-07 20:30N 47°13' W 123°05'0 0.0
2017-Dec-07 20:00N 47°13' W 123°05'0 0.0
2017-Dec-07 19:30N 47°13' W 123°05'0 0.1
2017-Dec-07 19:00N 47°13' W 123°05'0 0.1
2017-Dec-07 18:30N 47°13' W 123°05'0 0.0
2017-Dec-07 18:00N 47°13' W 123°05'0 0.0
2017-Dec-07 17:30N 47°13' W 123°05'0 0.0
2017-Dec-07 17:00N 47°13' W 123°05'0 0.0
2017-Dec-07 16:30N 47°13' W 123°05'0 0.0
2017-Dec-07 16:00N 47°13' W 123°05'0 0.0
2017-Dec-07 15:30N 47°13' W 123°05'0 0.0
2017-Dec-07 14:58N 47°13' W 123°05'0 0.0
2017-Dec-07 14:30N 47°13' W 123°05'0 0.0
2017-Dec-07 14:00N 47°13' W 123°05'0 0.0
2017-Dec-07 13:30N 47°13' W 123°05'0 0.0
2017-Dec-07 13:00N 47°13' W 123°05'0 0.0
2017-Dec-07 12:30N 47°13' W 123°05'0 0.0
2017-Dec-07 12:00N 47°13' W 123°05'0 0.0
2017-Dec-07 11:30N 47°13' W 123°05'0 0.0
2017-Dec-07 11:00N 47°13' W 123°05'0 0.0
2017-Dec-07 10:30N 47°13' W 123°05'0 0.0
2017-Dec-07 10:00N 47°13' W 123°05'0 0.0
2017-Dec-07 09:30N 47°13' W 123°05'0 0.0
2017-Dec-07 09:00N 47°13' W 123°05'0 0.0
2017-Dec-07 08:30N 47°13' W 123°05'0 0.0
2017-Dec-07 08:00N 47°13' W 123°05'0 0.0
2017-Dec-07 07:30N 47°13' W 123°05'0 0.0
2017-Dec-07 07:00N 47°13' W 123°05'0 0.0
2017-Dec-07 06:30N 47°13' W 123°05'0 0.0
2017-Dec-07 06:00N 47°13' W 123°05'0 0.0
2017-Dec-07 05:30N 47°13' W 123°05'0 0.0
2017-Dec-07 05:00N 47°13' W 123°05'0 0.1
2017-Dec-07 04:30N 47°13' W 123°05'1 2.3
2017-Dec-07 04:00N 47°12' W 123°04'3 6.6
2017-Dec-07 03:30N 47°12' W 122°59'2 4.6
2017-Dec-07 03:00N 47°12' W 122°56'1 1.4
2017-Dec-07 02:29N 47°12' W 122°56'1 1.3
2017-Dec-07 02:00N 47°11' W 122°56'15 6.6
2017-Dec-06 23:40N 47°15' W 122°34'210.7
2017-Dec-06 23:30N 47°16' W 122°33'4 8.8
2017-Dec-06 23:00N 47°21' W 122°33'4 7.8
2017-Dec-06 22:30N 47°25' W 122°32'4 8.3
2017-Dec-06 22:00N 47°29' W 122°30'4 8.0
2017-Dec-06 21:30N 47°32' W 122°28'4 8.0
2017-Dec-06 21:00N 47°35' W 122°24'  
Track history (hours):
 
Tides and Currents Weather Stations Pressure Air Temp Water Temp Dewpoint Dewpoint Depression Visibility Wind Speed Wind Dir Waves Ship Positions

Island Venture

Owner: Island Tug and Barge, Seattle, WA. More information available from US FCC via Universal Licensing System and Coast Guard Vessel Documentation Center.

Last reported at 2017-Dec-16 05:28 UTC. Time now 2017-Dec-16 05:35 UTC.
Position N 47°34' W 122°21'.

Length 32 m.

MMSI: 367529420.

Date/timePositionNaut miles runAvg speedWind from/ knotsBaromVisibWave heightAir tempDewpointWater temp
2017-Dec-16 05:28N 47°34' W 122°21'2 4.2
2017-Dec-16 05:00N 47°36' W 122°22'3 5.6
2017-Dec-16 04:30N 47°35' W 122°26'3 6.7
2017-Dec-16 04:01N 47°32' W 122°28'4 7.9
2017-Dec-16 03:30N 47°28' W 122°31'4 7.8
2017-Dec-16 03:00N 47°24' W 122°32'4 7.8
2017-Dec-16 02:30N 47°20' W 122°33'5 9.4
2017-Dec-16 02:00N 47°16' W 122°33'4 8.4
2017-Dec-16 01:28N 47°12' W 122°36'13 6.0
2017-Dec-15 23:17N 47°11' W 122°55'1 4.6
2017-Dec-15 23:00N 47°12' W 122°56'2 3.1
2017-Dec-15 22:30N 47°12' W 122°58'1 2.8
2017-Dec-15 22:00N 47°12' W 123°00'2 3.7
2017-Dec-15 21:30N 47°12' W 123°03'1 3.0
2017-Dec-15 21:00N 47°13' W 123°05'0 0.4
2017-Dec-15 20:30N 47°13' W 123°04'0 0.0
2017-Dec-15 20:00N 47°13' W 123°04'0 0.0
2017-Dec-15 19:30N 47°13' W 123°04'0 0.0
2017-Dec-15 19:00N 47°13' W 123°04'0 0.0
2017-Dec-15 18:30N 47°13' W 123°04'0 0.0
2017-Dec-15 18:00N 47°13' W 123°04'0 0.0
2017-Dec-15 17:30N 47°13' W 123°04'0 0.0
2017-Dec-15 17:00N 47°13' W 123°04'0 0.0
2017-Dec-15 16:30N 47°13' W 123°04'0 0.0
2017-Dec-15 16:00N 47°13' W 123°04'0 0.0
2017-Dec-15 15:30N 47°13' W 123°04'0 0.0
2017-Dec-15 15:00N 47°13' W 123°04'0 0.2
2017-Dec-15 14:30N 47°13' W 123°05'3 5.1
2017-Dec-15 14:00N 47°12' W 123°01'3 6.0
2017-Dec-15 13:30N 47°12' W 122°57'0 0.2
2017-Dec-15 13:00N 47°12' W 122°57'2 4.0
2017-Dec-15 12:30N 47°12' W 122°60'2 3.7
2017-Dec-15 12:00N 47°12' W 123°02'2 3.3
2017-Dec-15 11:30N 47°13' W 123°05'0 0.2
2017-Dec-15 10:32N 47°13' W 123°05'0 0.0
2017-Dec-15 09:14N 47°13' W 123°05'0 0.0
2017-Dec-15 08:56N 47°13' W 123°05'0 0.0
2017-Dec-15 08:28N 47°13' W 123°05'0 0.0
2017-Dec-15 07:58N 47°13' W 123°05'0 0.0
2017-Dec-15 07:25N 47°13' W 123°05'0 0.0
2017-Dec-15 07:00N 47°13' W 123°05'0 0.0
2017-Dec-15 06:30N 47°13' W 123°05'0 0.0
2017-Dec-15 06:00N 47°13' W 123°05'0 0.0
2017-Dec-15 05:30N 47°13' W 123°05'0 0.0
2017-Dec-15 05:00N 47°13' W 123°05'0 0.0
2017-Dec-15 04:30N 47°13' W 123°05'0 0.0
2017-Dec-15 04:00N 47°13' W 123°05'0 0.1
2017-Dec-15 02:30N 47°13' W 123°04'0 0.0
2017-Dec-15 00:59N 47°13' W 123°04'0 0.0
2017-Dec-15 00:30N 47°13' W 123°04'10 1.7
2017-Dec-14 18:16N 47°13' W 122°49'1 0.1
2017-Dec-14 12:51N 47°12' W 122°50'0 0.1
2017-Dec-14 12:30N 47°12' W 122°50'0 0.1
2017-Dec-14 12:00N 47°12' W 122°50'0 0.2
2017-Dec-14 09:54N 47°12' W 122°49'0 0.3
2017-Dec-14 09:30N 47°12' W 122°50'0 0.2
2017-Dec-14 08:57N 47°12' W 122°50'4 3.7
2017-Dec-14 07:55N 47°09' W 122°54'4 2.0
2017-Dec-14 05:59N 47°12' W 122°50'12 3.6
2017-Dec-14 02:45N 47°16' W 122°33'1 3.3
2017-Dec-14 02:29N 47°16' W 122°33'2 3.1
2017-Dec-14 01:55N 47°18' W 122°33'1 3.3
2017-Dec-14 01:30N 47°19' W 122°33'3 5.2
2017-Dec-14 01:01N 47°22' W 122°32'3 6.6
2017-Dec-14 00:31N 47°25' W 122°32'3 6.7
2017-Dec-14 00:01N 47°28' W 122°31'3 6.7
2017-Dec-13 23:31N 47°31' W 122°28'4 7.4
2017-Dec-13 23:01N 47°35' W 122°26'3 5.4
2017-Dec-13 22:30N 47°35' W 122°22'2 3.0
2017-Dec-13 22:00N 47°34' W 122°21'1 1.1
2017-Dec-13 21:30N 47°33' W 122°21'1 1.0
2017-Dec-13 20:59N 47°34' W 122°21'1 1.1
2017-Dec-13 20:30N 47°34' W 122°21'0 0.3
2017-Dec-13 19:59N 47°34' W 122°21'0 0.0
2017-Dec-13 19:30N 47°34' W 122°21'2 3.1
2017-Dec-13 19:00N 47°33' W 122°20'0 0.2
2017-Dec-13 18:30N 47°33' W 122°20'2 4.2
2017-Dec-13 18:00N 47°35' W 122°22'2 4.1
2017-Dec-13 17:30N 47°35' W 122°25'3 5.6
2017-Dec-13 17:01N 47°33' W 122°27'3 6.0
2017-Dec-13 16:30N 47°30' W 122°29'3 6.4
2017-Dec-13 16:00N 47°28' W 122°31'3 6.5
2017-Dec-13 15:30N 47°24' W 122°32'3 6.5
2017-Dec-13 15:00N 47°21' W 122°32'4 6.7
2017-Dec-13 14:23N 47°17' W 122°32'4 7.7
2017-Dec-13 13:52N 47°13' W 122°35'2 6.5
2017-Dec-13 13:30N 47°11' W 122°37'12 5.6
2017-Dec-13 11:20N 47°10' W 122°55'2 4.9
2017-Dec-13 10:59N 47°12' W 122°56'2 3.5
2017-Dec-13 10:30N 47°12' W 122°58'1 2.7
2017-Dec-13 10:00N 47°12' W 123°00'2 3.6
2017-Dec-13 09:30N 47°12' W 123°03'1 2.8
2017-Dec-13 09:00N 47°13' W 123°05'1 2.3
2017-Dec-13 08:30N 47°12' W 123°04'4 8.1
2017-Dec-13 08:00N 47°12' W 122°58'1 2.6
2017-Dec-13 07:29N 47°12' W 122°56'0 1.0
2017-Dec-13 07:00N 47°12' W 122°56'11 1.5
2017-Dec-12 23:46N 47°11' W 122°40'1 2.2
2017-Dec-12 23:29N 47°11' W 122°40'3 6.3
2017-Dec-12 23:00N 47°10' W 122°45'6 5.5
2017-Dec-12 21:57N 47°10' W 122°53'3 5.8
2017-Dec-12 21:29N 47°11' W 122°56'1 2.9
2017-Dec-12 21:00N 47°12' W 122°58'2 3.2
2017-Dec-12 20:30N 47°12' W 123°00'2 3.7
2017-Dec-12 20:00N 47°12' W 123°03'1 2.9
2017-Dec-12 19:30N 47°13' W 123°05'0 0.5
2017-Dec-12 19:00N 47°13' W 123°05'3 5.7
2017-Dec-12 18:30N 47°12' W 123°01'3 6.5
2017-Dec-12 18:00N 47°12' W 122°56'0 0.8
2017-Dec-12 17:30N 47°12' W 122°56'2 3.1
2017-Dec-12 17:00N 47°10' W 122°55'1 1.0
2017-Dec-12 16:03N 47°09' W 122°55'0 0.4
2017-Dec-12 16:00N 47°09' W 122°55'0 0.3
2017-Dec-12 15:29N 47°09' W 122°55'1 3.0
2017-Dec-12 15:00N 47°10' W 122°53'12 4.0
2017-Dec-12 11:57N 47°13' W 122°35'4 5.2
2017-Dec-12 11:14N 47°16' W 122°33'1 4.4
2017-Dec-12 10:57N 47°17' W 122°32'3 5.9
2017-Dec-12 10:30N 47°20' W 122°33'3 6.2
2017-Dec-12 10:00N 47°23' W 122°32'3 6.3
2017-Dec-12 09:30N 47°26' W 122°31'3 6.6
2017-Dec-12 09:00N 47°29' W 122°30'3 6.7
2017-Dec-12 08:30N 47°32' W 122°28'3 6.3
2017-Dec-12 08:00N 47°35' W 122°25'2 4.8
2017-Dec-12 07:31N 47°35' W 122°22'1 1.8
2017-Dec-12 07:00N 47°34' W 122°21'0 0.1
2017-Dec-12 06:30N 47°34' W 122°21'2 3.6
2017-Dec-12 06:00N 47°33' W 122°20'0 0.0
2017-Dec-12 05:29N 47°33' W 122°20'0 0.0
2017-Dec-12 04:59N 47°33' W 122°20'0 0.3
2017-Dec-12 04:26N 47°33' W 122°20'1 2.7
2017-Dec-12 03:58N 47°34' W 122°21'2 3.8
2017-Dec-12 03:31N 47°36' W 122°22'2 4.7
2017-Dec-12 03:01N 47°35' W 122°25'3 5.8
2017-Dec-12 02:30N 47°33' W 122°28'3 6.9
2017-Dec-12 02:01N 47°29' W 122°30'3 7.0
2017-Dec-12 01:30N 47°26' W 122°31'3 6.8
2017-Dec-12 01:00N 47°23' W 122°32'4 7.9
2017-Dec-12 00:31N 47°19' W 122°33'5 8.3
2017-Dec-11 23:56N 47°14' W 122°34'3 6.9
2017-Dec-11 23:31N 47°12' W 122°37'12 5.6
2017-Dec-11 21:27N 47°10' W 122°53'3 5.6
2017-Dec-11 20:59N 47°11' W 122°56'1 2.8
2017-Dec-11 20:31N 47°12' W 122°58'2 3.3
2017-Dec-11 20:00N 47°12' W 123°00'2 3.7
2017-Dec-11 19:30N 47°12' W 123°03'1 2.8
2017-Dec-11 19:00N 47°13' W 123°05'2 3.5
2017-Dec-11 18:31N 47°12' W 123°02'4 7.7
2017-Dec-11 18:00N 47°12' W 122°57'1 1.7
2017-Dec-11 17:30N 47°12' W 122°56'2 3.9
2017-Dec-11 17:00N 47°10' W 122°55'1 1.3
2017-Dec-11 16:29N 47°09' W 122°54'5 2.8
2017-Dec-11 14:53N 47°12' W 122°50'0 0.3
2017-Dec-11 14:12N 47°12' W 122°50'0 0.2
2017-Dec-11 13:56N 47°12' W 122°50'0 0.1
2017-Dec-11 13:25N 47°12' W 122°50'0 0.4
2017-Dec-11 13:00N 47°12' W 122°50'0 0.4
2017-Dec-11 12:22N 47°12' W 122°50'0 0.3
2017-Dec-11 11:57N 47°12' W 122°50'0 0.1
2017-Dec-11 11:20N 47°12' W 122°50'0 0.1
2017-Dec-11 10:59N 47°12' W 122°50'0 0.2
2017-Dec-11 10:30N 47°12' W 122°50'0 0.3
2017-Dec-11 09:13N 47°12' W 122°49'0 0.4
2017-Dec-11 09:00N 47°12' W 122°49'0 0.5
2017-Dec-11 08:31N 47°12' W 122°49'0 0.4
2017-Dec-11 07:58N 47°12' W 122°50'0 0.2
2017-Dec-11 07:29N 47°12' W 122°50'0 0.3
2017-Dec-11 06:58N 47°12' W 122°50'0 0.4
2017-Dec-11 06:24N 47°12' W 122°50'4 3.4
2017-Dec-11 05:16N 47°09' W 122°54'0 0.6
2017-Dec-11 05:00N 47°09' W 122°54'16 6.4
2017-Dec-11 02:31N 47°16' W 122°33'0 8.1
2017-Dec-11 02:30N 47°16' W 122°33'4 7.2
2017-Dec-11 02:01N 47°20' W 122°33'4 7.0
2017-Dec-11 01:30N 47°23' W 122°32'4 7.0
2017-Dec-11 01:00N 47°27' W 122°31'3 7.0
2017-Dec-11 00:31N 47°30' W 122°30'4 7.0
2017-Dec-11 00:00N 47°33' W 122°27'4 7.9
2017-Dec-10 23:30N 47°36' W 122°24'2 4.5
2017-Dec-10 23:01N 47°34' W 122°21'1 1.4
2017-Dec-10 22:30N 47°34' W 122°21'0 0.1
2017-Dec-10 22:00N 47°34' W 122°21'0 0.0
2017-Dec-10 21:31N 47°34' W 122°21'1 2.8
2017-Dec-10 21:00N 47°32' W 122°20'2 3.7
2017-Dec-10 20:28N 47°31' W 122°18'3 5.6
2017-Dec-10 19:58N 47°33' W 122°21'3 6.0
2017-Dec-10 19:30N 47°36' W 122°21'2 3.1
2017-Dec-10 19:00N 47°34' W 122°21'2 4.8
2017-Dec-10 18:30N 47°32' W 122°20'2 3.6
2017-Dec-10 18:00N 47°31' W 122°18'1 2.6
2017-Dec-10 17:30N 47°32' W 122°19'3 5.3
2017-Dec-10 16:58N 47°34' W 122°21'0 0.0
2017-Dec-10 16:30N 47°34' W 122°21'0 0.0
2017-Dec-10 16:00N 47°34' W 122°21'0 0.0
2017-Dec-10 15:31N 47°34' W 122°21'0 0.0
2017-Dec-10 14:59N 47°34' W 122°21'0 0.0
2017-Dec-10 14:30N 47°34' W 122°21'0 0.0
2017-Dec-10 14:00N 47°34' W 122°21'0 0.0
2017-Dec-10 13:30N 47°34' W 122°21'0 0.0
2017-Dec-09 18:55N 47°34' W 122°21'0 0.0
2017-Dec-09 18:30N 47°34' W 122°21'1 2.4
2017-Dec-09 18:00N 47°35' W 122°22'1 1.6
2017-Dec-09 17:30N 47°36' W 122°23'1 2.4
2017-Dec-09 17:00N 47°36' W 122°24'3 5.4
2017-Dec-09 16:30N 47°33' W 122°27'3 5.0
2017-Dec-09 16:00N 47°31' W 122°29'3 5.2
2017-Dec-09 15:30N 47°29' W 122°30'3 6.9
2017-Dec-09 15:00N 47°26' W 122°32'3 6.8
2017-Dec-09 14:30N 47°22' W 122°32'3 6.4
2017-Dec-09 14:00N 47°19' W 122°33'2 3.3
2017-Dec-09 13:29N 47°18' W 122°33'1 2.8
2017-Dec-09 13:00N 47°16' W 122°33'2 4.5
2017-Dec-09 12:29N 47°14' W 122°35'3 6.8
2017-Dec-09 12:00N 47°11' W 122°37'3 4.8
2017-Dec-09 11:17N 47°08' W 122°39'0 0.0
2017-Dec-09 10:56N 47°08' W 122°39'0 0.0
2017-Dec-09 08:26N 47°08' W 122°39'0 0.0
2017-Dec-09 07:52N 47°08' W 122°39'0 0.0
2017-Dec-09 07:29N 47°08' W 122°39'0 0.8
2017-Dec-09 07:00N 47°08' W 122°39'2 4.9
2017-Dec-09 06:30N 47°07' W 122°42'8 7.4
2017-Dec-09 05:21N 47°10' W 122°54'3 6.3
2017-Dec-09 04:57N 47°12' W 122°56'2 4.4
2017-Dec-09 04:30N 47°12' W 122°59'3 5.1
2017-Dec-09 04:00N 47°12' W 123°02'2 3.5
2017-Dec-09 03:30N 47°13' W 123°05'0 0.0
2017-Dec-09 03:00N 47°13' W 123°05'0 0.0
2017-Dec-09 02:30N 47°13' W 123°05'0 0.0
2017-Dec-09 02:00N 47°13' W 123°05'0 0.0
2017-Dec-09 01:30N 47°13' W 123°05'0 0.0
2017-Dec-09 01:00N 47°13' W 123°05'0 0.0
2017-Dec-09 00:30N 47°13' W 123°05'0 0.0
2017-Dec-09 00:00N 47°13' W 123°05'0 0.0
2017-Dec-08 23:30N 47°13' W 123°05'0 0.0
2017-Dec-08 23:00N 47°13' W 123°05'0 0.0
2017-Dec-08 22:30N 47°13' W 123°05'0 0.0
2017-Dec-08 22:00N 47°13' W 123°05'0 0.0
2017-Dec-08 21:30N 47°13' W 123°05'0 0.0
2017-Dec-08 21:00N 47°13' W 123°05'0 0.0
2017-Dec-08 20:30N 47°13' W 123°05'0 0.0
2017-Dec-08 20:00N 47°13' W 123°05'0 0.0
2017-Dec-08 19:30N 47°13' W 123°05'0 0.0
2017-Dec-08 19:00N 47°13' W 123°05'0 0.0
2017-Dec-08 18:30N 47°13' W 123°05'0 0.0
2017-Dec-08 18:00N 47°13' W 123°05'0 0.0
2017-Dec-08 17:29N 47°13' W 123°05'0 0.0
2017-Dec-08 17:00N 47°13' W 123°05'0 0.0
2017-Dec-08 16:30N 47°13' W 123°05'0 0.0
2017-Dec-08 16:00N 47°13' W 123°05'0 0.0
2017-Dec-08 14:58N 47°13' W 123°05'0 0.0
2017-Dec-08 14:28N 47°13' W 123°05'0 0.0
2017-Dec-08 14:00N 47°13' W 123°05'0 0.0
2017-Dec-08 13:30N 47°13' W 123°05'0 0.0
2017-Dec-08 13:00N 47°13' W 123°05'0 0.0
2017-Dec-08 12:30N 47°13' W 123°05'0 0.0
2017-Dec-08 12:00N 47°13' W 123°05'0 0.0
2017-Dec-08 11:30N 47°13' W 123°05'0 0.0
2017-Dec-08 11:00N 47°13' W 123°05'0 0.0
2017-Dec-08 10:30N 47°13' W 123°05'0 0.0
2017-Dec-08 10:00N 47°13' W 123°05'0 0.0
2017-Dec-08 09:30N 47°13' W 123°05'0 0.0
2017-Dec-08 09:00N 47°13' W 123°05'0 0.0
2017-Dec-08 08:30N 47°13' W 123°05'0 0.0
2017-Dec-08 08:00N 47°13' W 123°05'0 0.0
2017-Dec-08 07:30N 47°13' W 123°05'0 0.0
2017-Dec-08 07:00N 47°13' W 123°05'0 0.0
2017-Dec-08 06:30N 47°13' W 123°05'0 0.0
2017-Dec-08 05:59N 47°13' W 123°05'0 0.0
2017-Dec-08 05:30N 47°13' W 123°05'0 0.0
2017-Dec-08 05:00N 47°13' W 123°05'0 0.0
2017-Dec-08 04:30N 47°13' W 123°05'0 0.0
2017-Dec-08 04:00N 47°13' W 123°05'0 0.0
2017-Dec-08 03:30N 47°13' W 123°05'0 0.0
2017-Dec-08 03:00N 47°13' W 123°05'0 0.0
2017-Dec-08 02:30N 47°13' W 123°05'0 0.0
2017-Dec-08 01:59N 47°13' W 123°05'0 0.0
2017-Dec-08 01:30N 47°13' W 123°05'0 0.0
2017-Dec-08 01:00N 47°13' W 123°05'0 0.0
2017-Dec-08 00:30N 47°13' W 123°05'0 0.0
2017-Dec-07 23:58N 47°13' W 123°05'0 0.1
2017-Dec-07 23:30N 47°13' W 123°05'0 0.0
2017-Dec-07 23:00N 47°13' W 123°05'0 0.0
2017-Dec-07 22:30N 47°13' W 123°05'0 0.0
2017-Dec-07 22:00N 47°13' W 123°05'0 0.0
2017-Dec-07 21:30N 47°13' W 123°05'0 0.0
2017-Dec-07 20:59N 47°13' W 123°05'0 0.1
2017-Dec-07 20:30N 47°13' W 123°05'0 0.0
2017-Dec-07 20:00N 47°13' W 123°05'0 0.0
2017-Dec-07 19:30N 47°13' W 123°05'0 0.1
2017-Dec-07 19:00N 47°13' W 123°05'0 0.1
2017-Dec-07 18:30N 47°13' W 123°05'0 0.0
2017-Dec-07 18:00N 47°13' W 123°05'0 0.0
2017-Dec-07 17:30N 47°13' W 123°05'0 0.0
2017-Dec-07 17:00N 47°13' W 123°05'0 0.0
2017-Dec-07 16:30N 47°13' W 123°05'0 0.0
2017-Dec-07 16:00N 47°13' W 123°05'0 0.0
2017-Dec-07 15:30N 47°13' W 123°05'0 0.0
2017-Dec-07 14:58N 47°13' W 123°05'0 0.0
2017-Dec-07 14:30N 47°13' W 123°05'0 0.0
2017-Dec-07 14:00N 47°13' W 123°05'0 0.0
2017-Dec-07 13:30N 47°13' W 123°05'0 0.0
2017-Dec-07 13:00N 47°13' W 123°05'0 0.0
2017-Dec-07 12:30N 47°13' W 123°05'0 0.0
2017-Dec-07 12:00N 47°13' W 123°05'0 0.0
2017-Dec-07 11:30N 47°13' W 123°05'0 0.0
2017-Dec-07 11:00N 47°13' W 123°05'0 0.0
2017-Dec-07 10:30N 47°13' W 123°05'0 0.0
2017-Dec-07 10:00N 47°13' W 123°05'0 0.0
2017-Dec-07 09:30N 47°13' W 123°05'0 0.0
2017-Dec-07 09:00N 47°13' W 123°05'0 0.0
2017-Dec-07 08:30N 47°13' W 123°05'0 0.0
2017-Dec-07 08:00N 47°13' W 123°05'0 0.0
2017-Dec-07 07:30N 47°13' W 123°05'0 0.0
2017-Dec-07 07:00N 47°13' W 123°05'0 0.0
2017-Dec-07 06:30N 47°13' W 123°05'0 0.0
2017-Dec-07 06:00N 47°13' W 123°05'0 0.0
2017-Dec-07 05:30N 47°13' W 123°05'0 0.0
2017-Dec-07 05:00N 47°13' W 123°05'0 0.1
2017-Dec-07 04:30N 47°13' W 123°05'1 2.3
2017-Dec-07 04:00N 47°12' W 123°04'3 6.6
2017-Dec-07 03:30N 47°12' W 122°59'2 4.6
2017-Dec-07 03:00N 47°12' W 122°56'1 1.4
2017-Dec-07 02:29N 47°12' W 122°56'1 1.3
2017-Dec-07 02:00N 47°11' W 122°56'15 6.6
2017-Dec-06 23:40N 47°15' W 122°34'210.7
2017-Dec-06 23:30N 47°16' W 122°33'4 8.8
2017-Dec-06 23:00N 47°21' W 122°33'4 7.8
2017-Dec-06 22:30N 47°25' W 122°32'4 8.3
2017-Dec-06 22:00N 47°29' W 122°30'4 8.0
2017-Dec-06 21:30N 47°32' W 122°28'4 8.0
2017-Dec-06 21:00N 47°35' W 122°24'  

Dump ship's entire track history